sensor_id;sensor_type;location;lat;lon;timestamp;temperature;humidity
31038;DHT22;17702;47.590;7.666;2022-12-24T00:02:18;13.90;99.90
31038;DHT22;17702;47.590;7.666;2022-12-24T00:04:44;13.90;99.90
31038;DHT22;17702;47.590;7.666;2022-12-24T00:07:10;13.90;99.90
31038;DHT22;17702;47.590;7.666;2022-12-24T00:09:35;13.80;99.90
31038;DHT22;17702;47.590;7.666;2022-12-24T00:12:01;13.90;99.90
31038;DHT22;17702;47.590;7.666;2022-12-24T00:14:26;13.80;99.90
31038;DHT22;17702;47.590;7.666;2022-12-24T00:16:52;13.80;99.90
31038;DHT22;17702;47.590;7.666;2022-12-24T00:19:17;13.80;99.90
31038;DHT22;17702;47.590;7.666;2022-12-24T00:21:42;13.80;99.90
31038;DHT22;17702;47.590;7.666;2022-12-24T00:24:08;13.80;99.90
31038;DHT22;17702;47.590;7.666;2022-12-24T00:26:34;13.80;99.90
31038;DHT22;17702;47.590;7.666;2022-12-24T00:28:59;13.70;99.90
31038;DHT22;17702;47.590;7.666;2022-12-24T00:31:25;13.70;99.90
31038;DHT22;17702;47.590;7.666;2022-12-24T00:33:51;13.70;99.90
31038;DHT22;17702;47.590;7.666;2022-12-24T00:36:17;13.70;99.90
31038;DHT22;17702;47.590;7.666;2022-12-24T00:38:42;13.70;99.90
31038;DHT22;17702;47.590;7.666;2022-12-24T00:41:08;13.70;99.90
31038;DHT22;17702;47.590;7.666;2022-12-24T00:46:15;13.70;99.90
31038;DHT22;17702;47.590;7.666;2022-12-24T00:48:41;13.70;99.90
31038;DHT22;17702;47.590;7.666;2022-12-24T00:51:06;13.60;99.90
31038;DHT22;17702;47.590;7.666;2022-12-24T00:53:32;13.60;99.90
31038;DHT22;17702;47.590;7.666;2022-12-24T00:55:57;13.60;99.90
31038;DHT22;17702;47.590;7.666;2022-12-24T00:58:23;13.60;99.90
31038;DHT22;17702;47.590;7.666;2022-12-24T01:00:48;13.60;99.90
31038;DHT22;17702;47.590;7.666;2022-12-24T01:03:14;13.50;99.90
31038;DHT22;17702;47.590;7.666;2022-12-24T01:05:39;13.50;99.90
31038;DHT22;17702;47.590;7.666;2022-12-24T01:08:04;13.50;99.90
31038;DHT22;17702;47.590;7.666;2022-12-24T01:10:30;13.50;99.90
31038;DHT22;17702;47.590;7.666;2022-12-24T01:12:55;13.50;99.90
31038;DHT22;17702;47.590;7.666;2022-12-24T01:15:21;13.50;99.90
31038;DHT22;17702;47.590;7.666;2022-12-24T01:17:46;13.40;99.90
31038;DHT22;17702;47.590;7.666;2022-12-24T01:20:13;13.40;99.90
31038;DHT22;17702;47.590;7.666;2022-12-24T01:22:39;13.40;99.90
31038;DHT22;17702;47.590;7.666;2022-12-24T01:25:05;13.50;99.90
31038;DHT22;17702;47.590;7.666;2022-12-24T01:27:30;13.50;99.90
31038;DHT22;17702;47.590;7.666;2022-12-24T01:29:57;13.50;99.90
31038;DHT22;17702;47.590;7.666;2022-12-24T01:32:22;13.50;99.90
31038;DHT22;17702;47.590;7.666;2022-12-24T01:34:48;13.50;99.90
31038;DHT22;17702;47.590;7.666;2022-12-24T01:37:13;13.60;99.90
31038;DHT22;17702;47.590;7.666;2022-12-24T01:39:39;13.60;99.90
31038;DHT22;17702;47.590;7.666;2022-12-24T01:42:12;13.50;99.90
31038;DHT22;17702;47.590;7.666;2022-12-24T01:45:21;13.60;99.90
31038;DHT22;17702;47.590;7.666;2022-12-24T01:47:44;13.50;99.90
31038;DHT22;17702;47.590;7.666;2022-12-24T01:50:14;13.50;99.90
31038;DHT22;17702;47.590;7.666;2022-12-24T01:52:40;13.50;99.90
31038;DHT22;17702;47.590;7.666;2022-12-24T01:55:07;13.40;99.90
31038;DHT22;17702;47.590;7.666;2022-12-24T01:57:37;13.40;99.90
31038;DHT22;17702;47.590;7.666;2022-12-24T02:00:06;13.40;99.90
31038;DHT22;17702;47.590;7.666;2022-12-24T02:02:32;13.40;99.90
31038;DHT22;17702;47.590;7.666;2022-12-24T02:05:01;13.30;99.90
31038;DHT22;17702;47.590;7.666;2022-12-24T02:07:28;13.30;99.90
31038;DHT22;17702;47.590;7.666;2022-12-24T02:09:55;13.20;99.90
31038;DHT22;17702;47.590;7.666;2022-12-24T02:12:21;13.20;99.90
31038;DHT22;17702;47.590;7.666;2022-12-24T02:14:47;13.20;99.90
31038;DHT22;17702;47.590;7.666;2022-12-24T02:27:33;13.30;99.90
31038;DHT22;17702;47.590;7.666;2022-12-24T02:30:03;13.20;99.90
31038;DHT22;17702;47.590;7.666;2022-12-24T02:32:32;13.20;99.90
31038;DHT22;17702;47.590;7.666;2022-12-24T02:35:08;13.20;99.90
31038;DHT22;17702;47.590;7.666;2022-12-24T02:38:18;13.20;99.90
31038;DHT22;17702;47.590;7.666;2022-12-24T02:40:24;13.20;99.90
31038;DHT22;17702;47.590;7.666;2022-12-24T02:42:53;13.10;99.90
31038;DHT22;17702;47.590;7.666;2022-12-24T02:45:21;13.10;99.90
31038;DHT22;17702;47.590;7.666;2022-12-24T02:47:46;13.10;99.90
31038;DHT22;17702;47.590;7.666;2022-12-24T02:50:16;13.10;99.90
31038;DHT22;17702;47.590;7.666;2022-12-24T02:52:42;13.10;99.90
31038;DHT22;17702;47.590;7.666;2022-12-24T02:55:11;13.10;99.90
31038;DHT22;17702;47.590;7.666;2022-12-24T03:00:17;13.10;99.90
31038;DHT22;17702;47.590;7.666;2022-12-24T03:02:54;13.10;99.90
31038;DHT22;17702;47.590;7.666;2022-12-24T03:05:37;13.10;99.90
31038;DHT22;17702;47.590;7.666;2022-12-24T03:13:09;13.00;99.90
31038;DHT22;17702;47.590;7.666;2022-12-24T03:15:37;13.00;99.90
31038;DHT22;17702;47.590;7.666;2022-12-24T03:18:03;12.90;99.90
31038;DHT22;17702;47.590;7.666;2022-12-24T03:20:34;12.90;99.90
31038;DHT22;17702;47.590;7.666;2022-12-24T03:23:01;12.90;99.90
31038;DHT22;17702;47.590;7.666;2022-12-24T03:25:26;12.90;99.90
31038;DHT22;17702;47.590;7.666;2022-12-24T03:27:52;12.90;99.90
31038;DHT22;17702;47.590;7.666;2022-12-24T03:30:19;12.90;99.90
31038;DHT22;17702;47.590;7.666;2022-12-24T03:32:45;12.80;99.90
31038;DHT22;17702;47.590;7.666;2022-12-24T03:35:11;12.90;99.90
31038;DHT22;17702;47.590;7.666;2022-12-24T03:37:36;12.80;99.90
31038;DHT22;17702;47.590;7.666;2022-12-24T03:40:03;12.80;99.90
31038;DHT22;17702;47.590;7.666;2022-12-24T03:42:28;12.80;99.90
31038;DHT22;17702;47.590;7.666;2022-12-24T03:44:54;12.80;99.90
31038;DHT22;17702;47.590;7.666;2022-12-24T03:47:19;12.80;99.90
31038;DHT22;17702;47.590;7.666;2022-12-24T03:49:45;12.80;99.90
31038;DHT22;17702;47.590;7.666;2022-12-24T03:52:10;12.80;99.90
31038;DHT22;17702;47.590;7.666;2022-12-24T03:54:36;12.80;99.90
31038;DHT22;17702;47.590;7.666;2022-12-24T03:57:01;12.80;99.90
31038;DHT22;17702;47.590;7.666;2022-12-24T03:59:27;12.80;99.90
31038;DHT22;17702;47.590;7.666;2022-12-24T04:01:52;12.80;99.90
31038;DHT22;17702;47.590;7.666;2022-12-24T04:04:18;12.80;99.90
31038;DHT22;17702;47.590;7.666;2022-12-24T04:06:43;12.80;99.90
31038;DHT22;17702;47.590;7.666;2022-12-24T04:09:09;12.80;99.90
31038;DHT22;17702;47.590;7.666;2022-12-24T04:11:34;12.70;99.90
31038;DHT22;17702;47.590;7.666;2022-12-24T04:14:00;12.70;99.90
31038;DHT22;17702;47.590;7.666;2022-12-24T04:16:25;12.80;99.90
31038;DHT22;17702;47.590;7.666;2022-12-24T04:18:51;12.80;99.90
31038;DHT22;17702;47.590;7.666;2022-12-24T04:21:16;12.80;99.90
31038;DHT22;17702;47.590;7.666;2022-12-24T04:23:42;12.80;99.90
31038;DHT22;17702;47.590;7.666;2022-12-24T04:26:09;12.80;99.90
31038;DHT22;17702;47.590;7.666;2022-12-24T04:28:35;12.80;99.90
31038;DHT22;17702;47.590;7.666;2022-12-24T04:31:02;12.80;99.90
31038;DHT22;17702;47.590;7.666;2022-12-24T04:33:28;12.70;99.90
31038;DHT22;17702;47.590;7.666;2022-12-24T04:35:56;12.70;99.90
31038;DHT22;17702;47.590;7.666;2022-12-24T04:38:21;12.70;99.90
31038;DHT22;17702;47.590;7.666;2022-12-24T04:40:46;12.70;99.90
31038;DHT22;17702;47.590;7.666;2022-12-24T04:43:12;12.70;99.90
31038;DHT22;17702;47.590;7.666;2022-12-24T04:45:38;12.70;99.90
31038;DHT22;17702;47.590;7.666;2022-12-24T04:48:03;12.60;99.90
31038;DHT22;17702;47.590;7.666;2022-12-24T04:50:29;12.60;99.90
31038;DHT22;17702;47.590;7.666;2022-12-24T04:52:54;12.60;99.90
31038;DHT22;17702;47.590;7.666;2022-12-24T04:55:20;12.70;99.90
31038;DHT22;17702;47.590;7.666;2022-12-24T04:57:45;12.60;99.90
31038;DHT22;17702;47.590;7.666;2022-12-24T05:00:11;12.50;99.90
31038;DHT22;17702;47.590;7.666;2022-12-24T05:02:36;12.50;99.90
31038;DHT22;17702;47.590;7.666;2022-12-24T05:05:02;12.30;99.90
31038;DHT22;17702;47.590;7.666;2022-12-24T05:07:27;12.30;99.90
31038;DHT22;17702;47.590;7.666;2022-12-24T05:09:53;12.20;99.90
31038;DHT22;17702;47.590;7.666;2022-12-24T05:12:18;12.20;99.90
31038;DHT22;17702;47.590;7.666;2022-12-24T05:14:44;12.30;99.90
31038;DHT22;17702;47.590;7.666;2022-12-24T05:17:09;12.20;99.90
31038;DHT22;17702;47.590;7.666;2022-12-24T05:19:35;12.20;99.90
31038;DHT22;17702;47.590;7.666;2022-12-24T05:22:00;12.10;99.90
31038;DHT22;17702;47.590;7.666;2022-12-24T05:24:45;12.20;99.90
31038;DHT22;17702;47.590;7.666;2022-12-24T05:27:29;12.30;99.90
31038;DHT22;17702;47.590;7.666;2022-12-24T05:29:55;12.30;99.90
31038;DHT22;17702;47.590;7.666;2022-12-24T05:32:20;12.30;99.90
31038;DHT22;17702;47.590;7.666;2022-12-24T05:34:45;12.40;99.90
31038;DHT22;17702;47.590;7.666;2022-12-24T05:37:11;12.40;99.90
31038;DHT22;17702;47.590;7.666;2022-12-24T05:39:36;12.40;99.90
31038;DHT22;17702;47.590;7.666;2022-12-24T05:42:02;12.50;99.90
31038;DHT22;17702;47.590;7.666;2022-12-24T05:44:27;12.50;99.90
31038;DHT22;17702;47.590;7.666;2022-12-24T05:46:53;12.50;99.90
31038;DHT22;17702;47.590;7.666;2022-12-24T05:49:18;12.50;99.90
31038;DHT22;17702;47.590;7.666;2022-12-24T05:51:44;12.60;99.90
31038;DHT22;17702;47.590;7.666;2022-12-24T05:54:09;12.60;99.90
31038;DHT22;17702;47.590;7.666;2022-12-24T05:56:35;12.60;99.90
31038;DHT22;17702;47.590;7.666;2022-12-24T05:59:00;12.60;99.90
31038;DHT22;17702;47.590;7.666;2022-12-24T06:01:26;12.60;99.90
31038;DHT22;17702;47.590;7.666;2022-12-24T06:03:51;12.60;99.90
31038;DHT22;17702;47.590;7.666;2022-12-24T06:06:18;12.60;99.90
31038;DHT22;17702;47.590;7.666;2022-12-24T06:08:45;12.60;99.90
31038;DHT22;17702;47.590;7.666;2022-12-24T06:11:11;12.60;99.90
31038;DHT22;17702;47.590;7.666;2022-12-24T06:13:37;12.60;99.90
31038;DHT22;17702;47.590;7.666;2022-12-24T06:16:04;12.60;99.90
31038;DHT22;17702;47.590;7.666;2022-12-24T06:18:30;12.50;99.90
31038;DHT22;17702;47.590;7.666;2022-12-24T06:20:57;12.50;99.90
31038;DHT22;17702;47.590;7.666;2022-12-24T06:23:23;12.50;99.90
31038;DHT22;17702;47.590;7.666;2022-12-24T06:25:49;12.50;99.90
31038;DHT22;17702;47.590;7.666;2022-12-24T06:28:15;12.50;99.90
31038;DHT22;17702;47.590;7.666;2022-12-24T06:30:40;12.50;99.90
31038;DHT22;17702;47.590;7.666;2022-12-24T06:33:06;12.40;99.90
31038;DHT22;17702;47.590;7.666;2022-12-24T06:35:32;12.40;99.90
31038;DHT22;17702;47.590;7.666;2022-12-24T06:37:58;12.40;99.90
31038;DHT22;17702;47.590;7.666;2022-12-24T06:40:27;12.40;99.90
31038;DHT22;17702;47.590;7.666;2022-12-24T06:42:52;12.50;99.90
31038;DHT22;17702;47.590;7.666;2022-12-24T06:45:18;12.50;99.90
31038;DHT22;17702;47.590;7.666;2022-12-24T06:47:43;12.40;99.90
31038;DHT22;17702;47.590;7.666;2022-12-24T06:50:09;12.40;99.90
31038;DHT22;17702;47.590;7.666;2022-12-24T06:52:35;12.40;99.90
31038;DHT22;17702;47.590;7.666;2022-12-24T06:55:00;12.40;99.90
31038;DHT22;17702;47.590;7.666;2022-12-24T06:57:26;12.40;99.90
31038;DHT22;17702;47.590;7.666;2022-12-24T06:59:51;12.50;99.90
31038;DHT22;17702;47.590;7.666;2022-12-24T07:02:17;12.50;99.90
31038;DHT22;17702;47.590;7.666;2022-12-24T07:04:42;12.50;99.90
31038;DHT22;17702;47.590;7.666;2022-12-24T07:07:08;12.50;99.90
31038;DHT22;17702;47.590;7.666;2022-12-24T07:09:33;12.60;99.90
31038;DHT22;17702;47.590;7.666;2022-12-24T07:11:59;12.50;99.90
31038;DHT22;17702;47.590;7.666;2022-12-24T07:14:24;12.60;99.90
31038;DHT22;17702;47.590;7.666;2022-12-24T07:16:50;12.50;99.90
31038;DHT22;17702;47.590;7.666;2022-12-24T07:19:17;12.50;99.90
31038;DHT22;17702;47.590;7.666;2022-12-24T07:21:42;12.60;99.90
31038;DHT22;17702;47.590;7.666;2022-12-24T07:24:08;12.50;99.90
31038;DHT22;17702;47.590;7.666;2022-12-24T07:26:33;12.50;99.90
31038;DHT22;17702;47.590;7.666;2022-12-24T07:28:59;12.50;99.90
31038;DHT22;17702;47.590;7.666;2022-12-24T07:31:25;12.50;99.90
31038;DHT22;17702;47.590;7.666;2022-12-24T07:33:50;12.50;99.90
31038;DHT22;17702;47.590;7.666;2022-12-24T07:36:17;12.50;99.90
31038;DHT22;17702;47.590;7.666;2022-12-24T07:38:43;12.40;99.90
31038;DHT22;17702;47.590;7.666;2022-12-24T07:41:09;12.40;99.90
31038;DHT22;17702;47.590;7.666;2022-12-24T07:43:34;12.40;99.90
31038;DHT22;17702;47.590;7.666;2022-12-24T07:46:00;12.40;99.90
31038;DHT22;17702;47.590;7.666;2022-12-24T07:48:26;12.40;99.90
31038;DHT22;17702;47.590;7.666;2022-12-24T07:50:52;12.40;99.40
31038;DHT22;17702;47.590;7.666;2022-12-24T07:53:18;12.40;99.30
31038;DHT22;17702;47.590;7.666;2022-12-24T07:55:43;12.40;99.90
31038;DHT22;17702;47.590;7.666;2022-12-24T07:58:09;12.40;99.90
31038;DHT22;17702;47.590;7.666;2022-12-24T08:00:35;12.40;99.90
31038;DHT22;17702;47.590;7.666;2022-12-24T08:03:00;12.40;99.90
31038;DHT22;17702;47.590;7.666;2022-12-24T08:05:26;12.40;99.90
31038;DHT22;17702;47.590;7.666;2022-12-24T08:07:52;12.30;99.90
31038;DHT22;17702;47.590;7.666;2022-12-24T08:10:17;12.30;99.90
31038;DHT22;17702;47.590;7.666;2022-12-24T08:12:43;12.30;99.90
31038;DHT22;17702;47.590;7.666;2022-12-24T08:15:10;12.30;99.90
31038;DHT22;17702;47.590;7.666;2022-12-24T08:17:35;12.30;99.70
31038;DHT22;17702;47.590;7.666;2022-12-24T08:20:01;12.40;99.60
31038;DHT22;17702;47.590;7.666;2022-12-24T08:22:26;12.40;99.80
31038;DHT22;17702;47.590;7.666;2022-12-24T08:24:52;12.40;99.90
31038;DHT22;17702;47.590;7.666;2022-12-24T08:27:17;12.30;99.90
31038;DHT22;17702;47.590;7.666;2022-12-24T08:29:43;12.40;99.90
31038;DHT22;17702;47.590;7.666;2022-12-24T08:32:08;12.40;99.90
31038;DHT22;17702;47.590;7.666;2022-12-24T08:34:34;13.80;99.90
31038;DHT22;17702;47.590;7.666;2022-12-24T08:36:59;15.40;99.90
31038;DHT22;17702;47.590;7.666;2022-12-24T08:39:25;15.60;91.70
31038;DHT22;17702;47.590;7.666;2022-12-24T08:41:50;15.10;91.80
31038;DHT22;17702;47.590;7.666;2022-12-24T08:44:16;14.50;92.80
31038;DHT22;17702;47.590;7.666;2022-12-24T08:46:42;14.10;93.70
31038;DHT22;17702;47.590;7.666;2022-12-24T08:49:07;13.70;95.30
31038;DHT22;17702;47.590;7.666;2022-12-24T08:51:33;13.50;95.50
31038;DHT22;17702;47.590;7.666;2022-12-24T08:53:58;13.20;95.60
31038;DHT22;17702;47.590;7.666;2022-12-24T08:56:24;13.10;95.90
31038;DHT22;17702;47.590;7.666;2022-12-24T08:58:49;13.00;96.60
31038;DHT22;17702;47.590;7.666;2022-12-24T09:01:16;12.90;97.30
31038;DHT22;17702;47.590;7.666;2022-12-24T09:03:42;12.80;98.00
31038;DHT22;17702;47.590;7.666;2022-12-24T09:06:07;12.70;97.80
31038;DHT22;17702;47.590;7.666;2022-12-24T09:08:34;12.70;97.70
31038;DHT22;17702;47.590;7.666;2022-12-24T09:11:06;12.70;98.10
31038;DHT22;17702;47.590;7.666;2022-12-24T09:13:32;12.70;97.40
31038;DHT22;17702;47.590;7.666;2022-12-24T09:15:57;12.70;97.20
31038;DHT22;17702;47.590;7.666;2022-12-24T09:18:23;12.70;97.80
31038;DHT22;17702;47.590;7.666;2022-12-24T09:20:49;12.70;98.70
31038;DHT22;17702;47.590;7.666;2022-12-24T09:23:14;12.70;98.60
31038;DHT22;17702;47.590;7.666;2022-12-24T09:25:43;12.70;99.20
31038;DHT22;17702;47.590;7.666;2022-12-24T09:28:08;12.70;97.90
31038;DHT22;17702;47.590;7.666;2022-12-24T09:30:35;12.70;97.40
31038;DHT22;17702;47.590;7.666;2022-12-24T09:33:01;12.70;97.60
31038;DHT22;17702;47.590;7.666;2022-12-24T09:35:26;12.80;97.50
31038;DHT22;17702;47.590;7.666;2022-12-24T09:37:52;12.80;96.60
31038;DHT22;17702;47.590;7.666;2022-12-24T09:40:39;12.80;97.10
31038;DHT22;17702;47.590;7.666;2022-12-24T09:43:05;12.80;96.90
31038;DHT22;17702;47.590;7.666;2022-12-24T09:45:33;12.90;96.70
31038;DHT22;17702;47.590;7.666;2022-12-24T09:50:34;12.90;97.30
31038;DHT22;17702;47.590;7.666;2022-12-24T09:53:03;12.90;97.20
31038;DHT22;17702;47.590;7.666;2022-12-24T09:55:37;12.90;97.80
31038;DHT22;17702;47.590;7.666;2022-12-24T09:58:05;12.90;97.80
31038;DHT22;17702;47.590;7.666;2022-12-24T10:00:32;13.00;97.20
31038;DHT22;17702;47.590;7.666;2022-12-24T10:03:00;13.00;97.00
31038;DHT22;17702;47.590;7.666;2022-12-24T10:05:30;13.00;97.80
31038;DHT22;17702;47.590;7.666;2022-12-24T10:08:13;13.00;98.00
31038;DHT22;17702;47.590;7.666;2022-12-24T10:10:48;13.00;97.10
31038;DHT22;17702;47.590;7.666;2022-12-24T10:15:59;13.00;97.80
31038;DHT22;17702;47.590;7.666;2022-12-24T10:24:11;13.00;97.20
31038;DHT22;17702;47.590;7.666;2022-12-24T10:26:46;13.00;96.70
31038;DHT22;17702;47.590;7.666;2022-12-24T10:31:40;13.10;96.20
31038;DHT22;17702;47.590;7.666;2022-12-24T10:34:12;13.10;96.60
31038;DHT22;17702;47.590;7.666;2022-12-24T10:36:40;13.10;96.80
31038;DHT22;17702;47.590;7.666;2022-12-24T10:39:09;13.20;97.20
31038;DHT22;17702;47.590;7.666;2022-12-24T10:41:37;13.20;97.30
31038;DHT22;17702;47.590;7.666;2022-12-24T10:44:03;13.20;96.80
31038;DHT22;17702;47.590;7.666;2022-12-24T10:48:58;13.30;96.20
31038;DHT22;17702;47.590;7.666;2022-12-24T10:56:43;13.50;94.40
31038;DHT22;17702;47.590;7.666;2022-12-24T10:59:23;13.50;94.70
31038;DHT22;17702;47.590;7.666;2022-12-24T11:01:50;13.50;94.20
31038;DHT22;17702;47.590;7.666;2022-12-24T11:04:16;13.50;93.00
31038;DHT22;17702;47.590;7.666;2022-12-24T11:09:21;13.50;93.70
31038;DHT22;17702;47.590;7.666;2022-12-24T11:11:47;13.50;94.50
31038;DHT22;17702;47.590;7.666;2022-12-24T11:14:13;13.50;94.20
31038;DHT22;17702;47.590;7.666;2022-12-24T11:16:46;13.40;94.40
31038;DHT22;17702;47.590;7.666;2022-12-24T11:19:15;13.40;94.50
31038;DHT22;17702;47.590;7.666;2022-12-24T11:21:42;13.50;93.20
31038;DHT22;17702;47.590;7.666;2022-12-24T11:24:18;13.50;93.50
31038;DHT22;17702;47.590;7.666;2022-12-24T11:26:45;13.50;93.80
31038;DHT22;17702;47.590;7.666;2022-12-24T11:31:37;13.50;94.10
31038;DHT22;17702;47.590;7.666;2022-12-24T11:34:21;13.50;92.60
31038;DHT22;17702;47.590;7.666;2022-12-24T11:36:47;13.50;92.70
31038;DHT22;17702;47.590;7.666;2022-12-24T11:39:19;13.50;93.90
31038;DHT22;17702;47.590;7.666;2022-12-24T11:41:45;13.50;93.50
31038;DHT22;17702;47.590;7.666;2022-12-24T11:44:11;13.50;93.00
31038;DHT22;17702;47.590;7.666;2022-12-24T11:46:37;13.50;93.20
31038;DHT22;17702;47.590;7.666;2022-12-24T11:49:12;13.50;93.50
31038;DHT22;17702;47.590;7.666;2022-12-24T11:51:38;13.50;93.50
31038;DHT22;17702;47.590;7.666;2022-12-24T11:54:21;13.50;93.70
31038;DHT22;17702;47.590;7.666;2022-12-24T11:56:48;13.50;94.50
31038;DHT22;17702;47.590;7.666;2022-12-24T12:01:48;13.50;93.60
31038;DHT22;17702;47.590;7.666;2022-12-24T12:04:19;13.50;94.40
31038;DHT22;17702;47.590;7.666;2022-12-24T12:06:53;13.50;94.00
31038;DHT22;17702;47.590;7.666;2022-12-24T12:09:21;13.50;93.10
31038;DHT22;17702;47.590;7.666;2022-12-24T12:11:57;13.50;93.70
31038;DHT22;17702;47.590;7.666;2022-12-24T12:14:28;13.50;93.90
31038;DHT22;17702;47.590;7.666;2022-12-24T12:16:57;13.50;96.00
31038;DHT22;17702;47.590;7.666;2022-12-24T12:19:27;13.60;95.80
31038;DHT22;17702;47.590;7.666;2022-12-24T12:21:53;13.60;96.20
31038;DHT22;17702;47.590;7.666;2022-12-24T12:24:23;13.60;95.00
31038;DHT22;17702;47.590;7.666;2022-12-24T12:26:55;13.50;95.00
31038;DHT22;17702;47.590;7.666;2022-12-24T12:29:27;13.50;94.60
31038;DHT22;17702;47.590;7.666;2022-12-24T12:31:56;13.50;95.50
31038;DHT22;17702;47.590;7.666;2022-12-24T12:34:27;13.50;95.10
31038;DHT22;17702;47.590;7.666;2022-12-24T12:37:01;13.50;95.30
31038;DHT22;17702;47.590;7.666;2022-12-24T12:39:29;13.50;95.80
31038;DHT22;17702;47.590;7.666;2022-12-24T12:41:58;13.50;95.60
31038;DHT22;17702;47.590;7.666;2022-12-24T12:44:48;13.50;96.10
31038;DHT22;17702;47.590;7.666;2022-12-24T12:57:40;13.40;99.20
31038;DHT22;17702;47.590;7.666;2022-12-24T13:00:10;13.40;98.60
31038;DHT22;17702;47.590;7.666;2022-12-24T13:05:30;13.40;98.50
31038;DHT22;17702;47.590;7.666;2022-12-24T13:10:50;13.40;99.80
31038;DHT22;17702;47.590;7.666;2022-12-24T13:20:51;13.40;96.10
31038;DHT22;17702;47.590;7.666;2022-12-24T13:23:20;13.40;95.80
31038;DHT22;17702;47.590;7.666;2022-12-24T13:25:48;13.40;94.90
31038;DHT22;17702;47.590;7.666;2022-12-24T13:30:41;13.40;95.40
31038;DHT22;17702;47.590;7.666;2022-12-24T13:33:11;13.30;95.80
31038;DHT22;17702;47.590;7.666;2022-12-24T13:35:37;13.30;97.00
31038;DHT22;17702;47.590;7.666;2022-12-24T13:40:48;13.20;98.10
31038;DHT22;17702;47.590;7.666;2022-12-24T13:43:13;13.10;99.30
31038;DHT22;17702;47.590;7.666;2022-12-24T13:45:40;13.10;99.10
31038;DHT22;17702;47.590;7.666;2022-12-24T13:53:04;12.90;99.90
31038;DHT22;17702;47.590;7.666;2022-12-24T13:55:30;12.90;99.90
31038;DHT22;17702;47.590;7.666;2022-12-24T13:58:02;12.80;99.90
31038;DHT22;17702;47.590;7.666;2022-12-24T14:00:33;12.80;99.90
31038;DHT22;17702;47.590;7.666;2022-12-24T14:05:30;12.80;99.90
31038;DHT22;17702;47.590;7.666;2022-12-24T14:07:56;12.80;99.90
31038;DHT22;17702;47.590;7.666;2022-12-24T14:10:24;12.70;99.90
31038;DHT22;17702;47.590;7.666;2022-12-24T14:12:50;12.70;99.90
31038;DHT22;17702;47.590;7.666;2022-12-24T14:18:00;12.70;99.90
31038;DHT22;17702;47.590;7.666;2022-12-24T14:20:26;12.70;99.90
31038;DHT22;17702;47.590;7.666;2022-12-24T14:22:52;12.70;99.90
31038;DHT22;17702;47.590;7.666;2022-12-24T14:25:21;12.60;99.90
31038;DHT22;17702;47.590;7.666;2022-12-24T14:27:49;12.60;99.90
31038;DHT22;17702;47.590;7.666;2022-12-24T14:30:20;12.60;99.90
31038;DHT22;17702;47.590;7.666;2022-12-24T14:32:46;12.50;99.90
31038;DHT22;17702;47.590;7.666;2022-12-24T14:37:47;12.50;99.90
31038;DHT22;17702;47.590;7.666;2022-12-24T14:40:17;12.50;99.90
31038;DHT22;17702;47.590;7.666;2022-12-24T14:42:56;12.50;99.90
31038;DHT22;17702;47.590;7.666;2022-12-24T14:45:36;12.50;99.90
31038;DHT22;17702;47.590;7.666;2022-12-24T14:48:20;12.50;99.90
31038;DHT22;17702;47.590;7.666;2022-12-24T14:51:00;12.50;99.90
31038;DHT22;17702;47.590;7.666;2022-12-24T14:53:40;12.40;99.90
31038;DHT22;17702;47.590;7.666;2022-12-24T14:56:14;12.40;99.90
31038;DHT22;17702;47.590;7.666;2022-12-24T14:58:41;12.40;99.90
31038;DHT22;17702;47.590;7.666;2022-12-24T15:01:20;12.30;99.90
31038;DHT22;17702;47.590;7.666;2022-12-24T15:03:58;12.30;99.90
31038;DHT22;17702;47.590;7.666;2022-12-24T15:06:24;12.30;99.90
31038;DHT22;17702;47.590;7.666;2022-12-24T15:08:49;12.30;99.90
31038;DHT22;17702;47.590;7.666;2022-12-24T15:11:16;12.30;99.90
31038;DHT22;17702;47.590;7.666;2022-12-24T15:13:47;12.30;99.90
31038;DHT22;17702;47.590;7.666;2022-12-24T15:16:18;12.30;99.90
31038;DHT22;17702;47.590;7.666;2022-12-24T15:18:52;12.30;99.90
31038;DHT22;17702;47.590;7.666;2022-12-24T15:21:24;12.30;99.90
31038;DHT22;17702;47.590;7.666;2022-12-24T15:23:52;12.30;99.90
31038;DHT22;17702;47.590;7.666;2022-12-24T15:26:20;12.20;99.90
31038;DHT22;17702;47.590;7.666;2022-12-24T15:28:47;12.10;99.90
31038;DHT22;17702;47.590;7.666;2022-12-24T15:31:16;12.20;99.90
31038;DHT22;17702;47.590;7.666;2022-12-24T15:33:46;12.10;99.90
31038;DHT22;17702;47.590;7.666;2022-12-24T15:36:13;12.00;99.90
31038;DHT22;17702;47.590;7.666;2022-12-24T15:38:39;12.00;99.90
31038;DHT22;17702;47.590;7.666;2022-12-24T15:41:13;11.90;99.90
31038;DHT22;17702;47.590;7.666;2022-12-24T15:43:39;11.90;99.90
31038;DHT22;17702;47.590;7.666;2022-12-24T15:46:05;11.90;99.90
31038;DHT22;17702;47.590;7.666;2022-12-24T15:48:31;11.90;99.90
31038;DHT22;17702;47.590;7.666;2022-12-24T15:51:00;12.00;99.90
31038;DHT22;17702;47.590;7.666;2022-12-24T15:53:34;12.00;99.90
31038;DHT22;17702;47.590;7.666;2022-12-24T15:58:26;12.00;99.90
31038;DHT22;17702;47.590;7.666;2022-12-24T16:03:33;11.90;99.90
31038;DHT22;17702;47.590;7.666;2022-12-24T16:06:08;11.90;99.90
31038;DHT22;17702;47.590;7.666;2022-12-24T16:08:38;11.90;99.90
31038;DHT22;17702;47.590;7.666;2022-12-24T16:13:30;11.80;99.90
31038;DHT22;17702;47.590;7.666;2022-12-24T16:16:00;11.90;99.90
31038;DHT22;17702;47.590;7.666;2022-12-24T16:18:37;11.80;99.90
31038;DHT22;17702;47.590;7.666;2022-12-24T16:21:03;11.80;99.90
31038;DHT22;17702;47.590;7.666;2022-12-24T16:23:44;11.80;99.90
31038;DHT22;17702;47.590;7.666;2022-12-24T16:26:10;11.70;99.90
31038;DHT22;17702;47.590;7.666;2022-12-24T16:28:35;11.70;99.90
31038;DHT22;17702;47.590;7.666;2022-12-24T16:31:01;11.70;99.90
31038;DHT22;17702;47.590;7.666;2022-12-24T16:33:26;11.80;99.90
31038;DHT22;17702;47.590;7.666;2022-12-24T16:35:53;11.80;99.90
31038;DHT22;17702;47.590;7.666;2022-12-24T16:38:19;11.80;99.90
31038;DHT22;17702;47.590;7.666;2022-12-24T16:40:44;11.80;99.90
31038;DHT22;17702;47.590;7.666;2022-12-24T16:43:10;11.80;99.90
31038;DHT22;17702;47.590;7.666;2022-12-24T16:46:01;11.80;99.90
31038;DHT22;17702;47.590;7.666;2022-12-24T16:48:28;11.90;99.90
31038;DHT22;17702;47.590;7.666;2022-12-24T16:50:53;11.80;99.90
31038;DHT22;17702;47.590;7.666;2022-12-24T16:53:19;11.80;99.90
31038;DHT22;17702;47.590;7.666;2022-12-24T16:55:46;11.80;99.90
31038;DHT22;17702;47.590;7.666;2022-12-24T16:58:12;11.70;99.90
31038;DHT22;17702;47.590;7.666;2022-12-24T17:00:38;11.70;99.90
31038;DHT22;17702;47.590;7.666;2022-12-24T17:03:04;11.60;99.90
31038;DHT22;17702;47.590;7.666;2022-12-24T17:05:30;11.60;99.90
31038;DHT22;17702;47.590;7.666;2022-12-24T17:07:57;11.60;99.90
31038;DHT22;17702;47.590;7.666;2022-12-24T17:10:23;11.60;99.90
31038;DHT22;17702;47.590;7.666;2022-12-24T17:12:48;11.60;99.90